Time;durP1;ratioP1;P1;durP2;ratioP2;P2;SDS_P1;SDS_P2;PMS_P1;PMS_P2;Temp;Humidity;BMP_temperature;BMP_pressure;BME280_temperature;BME280_humidity;BME280_pressure;Samples;Min_cycle;Max_cycle;Signal;HPM_P1;HPM_P2
2022/04/18 00:02:05;;;;;;;16.33;13.20;;;7.60;99.90;;;;;;5017289;28;20133;-89
2022/04/18 00:04:33;;;;;;;19.33;14.13;;;7.60;99.90;;;;;;5000444;28;20066;-87
2022/04/18 00:06:59;;;;;;;21.83;14.02;;;7.60;99.90;;;;;;5016817;28;20064;-90
2022/04/18 00:09:24;;;;;;;19.00;14.43;;;7.50;99.90;;;;;;5000939;28;20096;-90
2022/04/18 00:11:50;;;;;;;19.83;14.55;;;7.40;99.90;;;;;;5016566;28;20058;-87
2022/04/18 00:14:16;;;;;;;18.98;13.95;;;7.40;99.90;;;;;;5001081;28;20528;-90
2022/04/18 00:16:41;;;;;;;22.63;15.00;;;7.70;99.90;;;;;;5017549;28;20119;-88
2022/04/18 00:19:07;;;;;;;20.08;14.30;;;7.40;99.90;;;;;;5017264;28;20053;-90
2022/04/18 00:21:33;;;;;;;21.92;14.90;;;7.70;99.90;;;;;;5034620;28;20128;-90
2022/04/18 00:23:58;;;;;;;24.15;15.45;;;7.30;99.90;;;;;;5034826;28;20112;-90
2022/04/18 00:26:24;;;;;;;22.48;15.15;;;7.30;99.90;;;;;;4984393;28;20099;-88
2022/04/18 00:28:49;;;;;;;22.30;15.32;;;7.20;99.90;;;;;;5016662;28;20471;-90
2022/04/18 00:31:15;;;;;;;22.10;15.48;;;7.20;99.90;;;;;;5034091;28;20128;-89
2022/04/18 00:33:41;;;;;;;23.50;15.85;;;7.20;99.90;;;;;;5034704;28;20049;-89
2022/04/18 00:36:06;;;;;;;24.08;15.60;;;7.20;99.90;;;;;;5037099;28;20079;-83
2022/04/18 00:38:32;;;;;;;22.42;15.68;;;7.20;99.90;;;;;;5037915;28;20084;-83
2022/04/18 00:40:58;;;;;;;23.58;15.70;;;7.10;99.90;;;;;;5001292;28;20107;-87
2022/04/18 00:43:39;;;;;;;24.05;15.90;;;7.10;99.90;;;;;;5006078;28;20052;-90
2022/04/18 00:46:05;;;;;;;24.20;16.13;;;7.00;99.90;;;;;;5017442;28;20049;-89
2022/04/18 00:48:31;;;;;;;22.45;16.08;;;7.20;99.90;;;;;;5034583;28;20056;-89
2022/04/18 00:50:57;;;;;;;22.50;15.63;;;7.00;99.90;;;;;;5015750;28;20062;-90
2022/04/18 00:53:22;;;;;;;22.67;14.93;;;6.50;99.90;;;;;;5000092;28;20088;-88
2022/04/18 00:55:48;;;;;;;23.70;15.85;;;6.90;99.90;;;;;;4980148;28;20050;-90
2022/04/18 00:58:14;;;;;;;24.33;14.85;;;7.00;99.90;;;;;;4996297;28;20521;-90
2022/04/18 01:00:39;;;;;;;22.73;15.75;;;6.80;99.90;;;;;;5012540;28;20774;-88
2022/04/18 01:03:05;;;;;;;23.27;15.77;;;6.80;99.90;;;;;;5012417;28;20076;-88
2022/04/18 01:05:31;;;;;;;24.73;16.10;;;6.80;99.90;;;;;;5012669;28;20425;-88
2022/04/18 01:07:57;;;;;;;24.45;16.40;;;7.00;99.90;;;;;;5011569;28;20049;-88
2022/04/18 01:10:22;;;;;;;23.08;16.30;;;6.70;99.90;;;;;;4979724;28;20068;-90
2022/04/18 01:12:48;;;;;;;25.48;15.25;;;6.70;99.90;;;;;;5012330;28;20504;-89
2022/04/18 01:15:14;;;;;;;24.27;15.18;;;6.70;99.90;;;;;;5013278;28;20053;-87
2022/04/18 01:17:40;;;;;;;25.08;14.80;;;6.70;99.90;;;;;;5011891;28;20056;-90
2022/04/18 01:20:06;;;;;;;23.17;14.80;;;6.60;99.90;;;;;;5011987;28;20160;-90
2022/04/18 01:22:32;;;;;;;24.20;13.95;;;6.60;99.90;;;;;;4995173;28;20050;-88
2022/04/18 01:30:26;;;;;;;20.42;13.50;;;7.10;99.90;;;;;;5012049;28;20141;-90
2022/04/18 01:32:52;;;;;;;20.10;13.23;;;6.70;99.90;;;;;;5011801;28;20136;-89
2022/04/18 01:35:17;;;;;;;20.75;12.80;;;6.70;99.90;;;;;;5011137;28;20755;-90
2022/04/18 01:37:43;;;;;;;22.63;13.90;;;6.70;99.90;;;;;;4995545;28;20382;-85
2022/04/18 01:40:09;;;;;;;20.75;14.02;;;6.70;99.90;;;;;;5012056;28;20081;-90
2022/04/18 01:42:35;;;;;;;18.48;14.20;;;6.60;99.90;;;;;;5012472;28;20053;-89
2022/04/18 01:45:00;;;;;;;19.90;13.75;;;6.60;99.90;;;;;;5012337;28;20042;-88
2022/04/18 01:47:27;;;;;;;19.27;13.43;;;6.60;99.90;;;;;;4979637;28;20060;-89
2022/04/18 01:49:52;;;;;;;20.67;13.93;;;6.60;99.90;;;;;;4995675;28;20058;-90
2022/04/18 01:52:18;;;;;;;21.17;14.02;;;6.60;99.90;;;;;;5012058;28;20081;-89
2022/04/18 01:54:44;;;;;;;22.08;14.73;;;6.70;99.90;;;;;;5012898;28;20099;-88
2022/04/18 01:57:09;;;;;;;21.05;14.70;;;6.50;99.90;;;;;;4982230;28;20061;-87
2022/04/18 01:59:35;;;;;;;19.08;13.63;;;6.50;99.90;;;;;;4999338;28;20050;-85
2022/04/18 02:02:01;;;;;;;21.02;14.25;;;6.50;99.90;;;;;;4999101;28;20045;-90
2022/04/18 02:04:26;;;;;;;18.58;13.18;;;6.40;99.90;;;;;;4982899;28;20115;-91
2022/04/18 02:06:52;;;;;;;19.52;13.68;;;6.40;99.90;;;;;;5032693;28;20041;-89
2022/04/18 02:09:18;;;;;;;20.85;14.35;;;6.40;99.90;;;;;;5032754;28;20502;-88
2022/04/18 02:11:43;;;;;;;20.85;13.60;;;6.40;99.90;;;;;;5035546;28;20069;-86
2022/04/18 02:14:09;;;;;;;19.15;12.90;;;6.30;99.90;;;;;;5042220;28;20552;-90
2022/04/18 02:16:35;;;;;;;18.83;13.35;;;6.30;99.90;;;;;;5021936;28;20072;-88
2022/04/18 02:19:01;;;;;;;20.00;13.52;;;6.30;99.90;;;;;;5014187;28;20069;-88
2022/04/18 02:21:26;;;;;;;19.80;13.50;;;6.30;99.90;;;;;;5017699;28;20083;-90
2022/04/18 02:23:52;;;;;;;19.33;12.95;;;6.30;99.90;;;;;;5025872;28;20473;-90
2022/04/18 02:26:18;;;;;;;19.25;13.38;;;6.30;99.90;;;;;;5026141;28;20045;-89
2022/04/18 02:28:43;;;;;;;18.77;13.10;;;6.20;99.90;;;;;;5031227;28;20037;-88
2022/04/18 02:31:09;;;;;;;16.92;12.65;;;6.30;99.90;;;;;;5036030;28;20045;-89
2022/04/18 02:33:35;;;;;;;16.85;12.45;;;6.40;99.90;;;;;;5016394;28;20045;-89
2022/04/18 02:36:03;;;;;;;22.75;13.45;;;6.50;99.90;;;;;;5016526;28;20405;-89
2022/04/18 02:38:29;;;;;;;19.45;12.95;;;6.60;99.90;;;;;;4984973;28;20520;-91
2022/04/18 02:40:55;;;;;;;20.20;13.25;;;6.70;99.90;;;;;;5019155;28;20049;-87
2022/04/18 02:43:20;;;;;;;21.73;13.45;;;7.10;99.90;;;;;;5039667;28;20106;-89
2022/04/18 02:45:46;;;;;;;19.27;13.10;;;6.80;99.90;;;;;;5033110;28;20393;-89
2022/04/18 02:48:12;;;;;;;21.15;14.00;;;6.80;99.90;;;;;;4999280;28;20064;-89
2022/04/18 02:50:37;;;;;;;21.40;14.02;;;6.80;99.90;;;;;;5015461;28;20433;-90
2022/04/18 02:53:05;;;;;;;24.38;14.30;;;6.70;99.90;;;;;;5015751;28;20041;-90
2022/04/18 02:55:31;;;;;;;20.33;13.15;;;6.80;99.90;;;;;;5015237;28;20062;-90
2022/04/18 02:57:56;;;;;;;19.63;13.45;;;7.40;99.90;;;;;;5010369;28;20101;-87
2022/04/18 03:00:22;;;;;;;21.77;14.02;;;6.70;99.90;;;;;;5051081;28;20037;-90
2022/04/18 03:02:48;;;;;;;19.73;14.18;;;6.80;99.90;;;;;;5043893;28;20080;-89
2022/04/18 03:05:13;;;;;;;22.60;12.85;;;6.70;99.90;;;;;;5016473;28;20071;-91
2022/04/18 03:07:39;;;;;;;26.90;14.50;;;6.70;99.90;;;;;;5015176;28;20503;-91
2022/04/18 03:10:05;;;;;;;19.83;12.95;;;7.10;99.90;;;;;;5033453;28;20049;-90
2022/04/18 03:12:31;;;;;;;20.10;13.40;;;6.50;99.90;;;;;;4981944;28;20061;-89
2022/04/18 03:14:57;;;;;;;20.83;13.63;;;6.90;99.90;;;;;;5015060;28;20057;-88
2022/04/18 03:17:23;;;;;;;22.58;14.60;;;6.50;99.90;;;;;;4982075;28;20458;-91
2022/04/18 03:19:49;;;;;;;19.80;13.73;;;6.40;99.90;;;;;;5033073;28;20089;-91
2022/04/18 03:22:14;;;;;;;21.42;14.93;;;6.90;99.90;;;;;;5032676;28;20037;-87
2022/04/18 03:24:40;;;;;;;19.67;14.05;;;6.40;99.90;;;;;;5014839;28;20392;-91
2022/04/18 03:27:06;;;;;;;22.58;14.73;;;6.80;99.90;;;;;;4982437;28;20049;-90
2022/04/18 03:29:32;;;;;;;22.52;14.02;;;6.30;99.90;;;;;;5014147;28;20045;-91
2022/04/18 03:31:57;;;;;;;20.98;13.63;;;6.20;99.90;;;;;;5014334;28;20049;-90
2022/04/18 03:34:23;;;;;;;20.55;13.73;;;6.20;99.90;;;;;;5033014;28;20052;-90
2022/04/18 03:39:51;;;;;;;22.33;14.30;;;6.20;99.90;;;;;;5015448;28;20137;-90
2022/04/18 03:42:32;;;;;;;22.70;13.45;;;6.20;99.90;;;;;;5014882;28;20132;-91
2022/04/18 03:45:00;;;;;;;21.13;14.43;;;6.20;99.90;;;;;;5015034;28;20045;-91
2022/04/18 03:47:26;;;;;;;25.52;14.02;;;6.20;99.90;;;;;;4998021;28;20398;-91
2022/04/18 03:49:52;;;;;;;22.02;13.85;;;6.70;99.90;;;;;;4998925;28;20056;-91
2022/04/18 03:52:17;;;;;;;20.45;14.07;;;6.20;99.90;;;;;;5014319;28;20045;-89
2022/04/18 03:54:43;;;;;;;18.75;12.80;;;6.20;99.90;;;;;;4998047;28;20054;-91
2022/04/18 03:57:09;;;;;;;23.58;14.93;;;6.20;99.90;;;;;;5014020;28;20114;-90
2022/04/18 03:59:35;;;;;;;22.88;14.75;;;6.20;99.90;;;;;;4996909;28;20047;-89
2022/04/18 04:02:02;;;;;;;22.55;14.70;;;6.10;99.90;;;;;;4981822;28;20054;-90
2022/04/18 04:04:28;;;;;;;21.40;15.20;;;6.10;99.90;;;;;;4997999;28;20045;-91
2022/04/18 04:06:53;;;;;;;24.17;14.85;;;6.30;99.90;;;;;;4997331;28;20052;-90
2022/04/18 04:09:19;;;;;;;25.67;15.68;;;6.20;99.90;;;;;;5016190;28;20049;-90
2022/04/18 04:11:45;;;;;;;25.33;16.45;;;6.20;99.90;;;;;;5001791;28;20053;-92
2022/04/18 04:14:12;;;;;;;25.92;15.32;;;6.20;99.90;;;;;;5035238;28;20041;-92
2022/04/18 04:16:40;;;;;;;30.05;17.60;;;6.30;99.90;;;;;;5000657;28;20107;-91
2022/04/18 04:19:06;;;;;;;25.38;16.10;;;6.20;99.90;;;;;;5001079;28;20111;-90
2022/04/18 04:21:33;;;;;;;29.52;17.38;;;6.20;99.90;;;;;;5016262;28;20049;-92
2022/04/18 04:23:59;;;;;;;27.05;15.98;;;6.20;99.90;;;;;;5000792;28;20053;-91
2022/04/18 04:26:25;;;;;;;30.45;16.27;;;6.20;99.90;;;;;;5000331;28;20041;-90
2022/04/18 04:28:51;;;;;;;28.67;15.68;;;6.60;99.90;;;;;;5000325;28;20092;-91
2022/04/18 04:31:16;;;;;;;28.65;15.55;;;6.00;99.90;;;;;;5034152;28;20099;-82
2022/04/18 04:33:42;;;;;;;26.67;15.73;;;6.00;99.90;;;;;;5016908;28;20057;-89
2022/04/18 04:36:08;;;;;;;29.98;15.98;;;6.00;99.90;;;;;;5034352;28;20128;-90
2022/04/18 04:38:34;;;;;;;25.75;15.65;;;6.70;99.90;;;;;;4999813;28;20037;-90
2022/04/18 04:40:59;;;;;;;27.00;14.82;;;6.30;99.90;;;;;;5033931;28;20049;-89
2022/04/18 04:43:28;;;;;;;24.75;14.40;;;6.50;99.90;;;;;;4983289;28;20136;-90
2022/04/18 04:45:57;;;;;;;22.33;14.10;;;6.30;99.90;;;;;;5016428;28;20075;-91
2022/04/18 04:48:23;;;;;;;23.45;14.63;;;6.20;99.90;;;;;;5021884;28;20106;-84
2022/04/18 04:50:49;;;;;;;25.92;14.18;;;6.30;99.90;;;;;;5005508;28;20385;-89
2022/04/18 04:53:14;;;;;;;24.50;14.18;;;6.40;99.90;;;;;;5033498;28;20054;-87
2022/04/18 04:55:41;;;;;;;22.38;14.38;;;6.40;99.90;;;;;;5015424;28;20060;-90
2022/04/18 04:58:09;;;;;;;25.55;14.95;;;6.70;99.90;;;;;;5016049;28;20053;-90
2022/04/18 05:00:35;;;;;;;25.35;15.25;;;7.30;99.90;;;;;;4999313;28;20127;-90
2022/04/18 05:03:01;;;;;;;22.67;14.13;;;8.10;99.90;;;;;;5033334;28;20045;-91
2022/04/18 05:05:26;;;;;;;25.13;14.15;;;8.10;99.90;;;;;;4998889;28;20094;-88
2022/04/18 05:07:52;;;;;;;21.15;13.73;;;8.20;99.90;;;;;;4982551;28;20049;-90
2022/04/18 05:10:18;;;;;;;18.67;12.55;;;8.20;99.90;;;;;;5015971;28;20049;-90
2022/04/18 05:12:43;;;;;;;19.88;13.38;;;8.00;99.90;;;;;;4998693;28;20049;-90
2022/04/18 05:15:09;;;;;;;17.50;12.88;;;7.90;99.90;;;;;;5016264;28;20041;-91
2022/04/18 05:17:35;;;;;;;16.17;12.23;;;8.10;99.90;;;;;;5004017;28;20049;-82
2022/04/18 05:20:03;;;;;;;16.13;12.32;;;8.50;99.90;;;;;;5036154;28;20026;-85
2022/04/18 05:22:29;;;;;;;18.33;12.68;;;9.10;99.90;;;;;;5003736;28;20056;-87
2022/04/18 05:24:57;;;;;;;18.23;12.48;;;9.60;99.90;;;;;;5011241;28;20049;-89
2022/04/18 05:27:23;;;;;;;17.85;12.75;;;10.10;99.90;;;;;;5041723;28;20401;-84
2022/04/18 05:29:49;;;;;;;16.30;12.50;;;10.60;99.90;;;;;;5002578;28;20053;-90
2022/04/18 05:32:15;;;;;;;17.15;13.07;;;11.00;99.90;;;;;;4991022;28;20049;-90
2022/04/18 05:34:40;;;;;;;21.17;14.02;;;11.20;99.90;;;;;;5015885;28;20053;-88
2022/04/18 05:37:07;;;;;;;20.02;13.68;;;11.70;99.90;;;;;;5016154;28;20152;-89
2022/04/18 05:39:33;;;;;;;18.02;12.73;;;12.00;99.90;;;;;;4983357;28;20545;-89
2022/04/18 05:41:59;;;;;;;14.63;11.50;;;12.30;98.80;;;;;;4999716;28;20057;-90
2022/04/18 05:44:25;;;;;;;15.25;11.93;;;12.60;95.40;;;;;;4999381;28;20049;-88
2022/04/18 05:46:50;;;;;;;17.48;12.10;;;12.70;97.10;;;;;;5033521;28;20046;-88
2022/04/18 05:49:16;;;;;;;15.50;11.15;;;12.90;96.30;;;;;;4998932;28;20057;-89
2022/04/18 05:51:42;;;;;;;17.85;12.77;;;13.60;95.40;;;;;;5014261;28;20052;-91
2022/04/18 05:54:08;;;;;;;14.90;11.98;;;13.20;96.60;;;;;;5015450;28;20132;-89
2022/04/18 05:56:34;;;;;;;17.08;12.90;;;13.90;93.90;;;;;;4998827;28;20097;-91
2022/04/18 05:59:00;;;;;;;14.90;12.00;;;14.40;92.60;;;;;;4998730;28;20060;-90
2022/04/18 06:01:26;;;;;;;13.85;12.23;;;14.10;93.10;;;;;;5031733;28;20120;-87
2022/04/18 06:03:52;;;;;;;14.70;12.93;;;14.30;92.10;;;;;;5032563;28;20048;-90
2022/04/18 06:06:18;;;;;;;15.68;12.10;;;13.40;94.10;;;;;;5014651;28;20049;-88
2022/04/18 06:08:43;;;;;;;18.60;12.60;;;14.20;93.50;;;;;;5014126;28;20045;-89
2022/04/18 06:11:09;;;;;;;18.27;13.23;;;14.50;91.60;;;;;;5014830;28;20490;-89
2022/04/18 06:13:35;;;;;;;18.88;14.73;;;15.20;88.10;;;;;;5031915;28;20053;-91
2022/04/18 06:16:00;;;;;;;17.67;13.85;;;14.80;87.60;;;;;;5032024;28;20048;-90
2022/04/18 06:18:27;;;;;;;18.40;13.63;;;15.00;88.80;;;;;;5015889;28;20045;-88
2022/04/18 06:20:53;;;;;;;17.10;12.75;;;15.30;87.50;;;;;;4998997;28;20093;-91
2022/04/18 06:23:18;;;;;;;14.90;12.85;;;15.50;87.20;;;;;;5014500;28;20550;-88
2022/04/18 06:25:44;;;;;;;16.40;12.88;;;15.30;87.60;;;;;;4998509;28;20517;-86
2022/04/18 06:28:10;;;;;;;15.98;12.48;;;15.30;89.80;;;;;;4998502;28;20046;-88
2022/04/18 06:30:36;;;;;;;15.52;11.93;;;15.90;84.60;;;;;;5013999;28;20254;-87
2022/04/18 06:33:01;;;;;;;13.32;11.43;;;15.70;86.70;;;;;;4998055;28;20053;-84
2022/04/18 06:35:27;;;;;;;13.77;10.95;;;15.80;84.00;;;;;;4998246;28;20049;-88
2022/04/18 06:37:53;;;;;;;13.50;10.93;;;15.70;85.90;;;;;;5014215;28;20052;-90
2022/04/18 06:40:18;;;;;;;12.48;10.90;;;15.60;89.40;;;;;;4998510;28;20064;-88
2022/04/18 06:42:44;;;;;;;13.43;10.70;;;15.90;85.90;;;;;;5014096;28;20409;-88
2022/04/18 06:45:10;;;;;;;12.80;9.82;;;16.60;85.40;;;;;;5015072;28;20473;-87
2022/04/18 06:47:35;;;;;;;13.15;9.88;;;16.80;84.50;;;;;;5014189;28;20092;-88
2022/04/18 06:50:06;;;;;;;11.23;9.98;;;16.90;85.50;;;;;;5014145;28;20059;-88
2022/04/18 06:52:40;;;;;;;13.38;10.05;;;16.50;83.10;;;;;;5031830;28;20053;-89
2022/04/18 06:55:07;;;;;;;11.98;10.32;;;17.00;82.00;;;;;;4997846;28;20485;-88
2022/04/18 06:57:32;;;;;;;12.80;10.15;;;17.20;83.90;;;;;;5010922;28;20099;-89
2022/04/18 06:59:58;;;;;;;12.75;10.18;;;16.50;80.10;;;;;;4995938;28;20085;-89
2022/04/18 07:02:24;;;;;;;12.75;10.27;;;17.10;82.10;;;;;;5022462;28;20049;-87
2022/04/18 07:04:50;;;;;;;12.38;10.25;;;17.30;82.40;;;;;;5022047;28;20050;-88
2022/04/18 07:07:15;;;;;;;12.27;10.45;;;17.80;79.60;;;;;;5022768;28;20053;-86
2022/04/18 07:09:41;;;;;;;12.45;9.75;;;17.80;82.20;;;;;;5004446;28;20258;-86
2022/04/18 07:12:07;;;;;;;11.15;9.77;;;18.10;81.10;;;;;;5007729;28;20056;-87
2022/04/18 07:14:35;;;;;;;11.25;9.80;;;18.10;81.60;;;;;;5021946;28;20037;-87
2022/04/18 07:17:01;;;;;;;10.90;9.63;;;18.10;79.30;;;;;;5021568;28;20048;-86
2022/04/18 07:19:28;;;;;;;11.43;9.43;;;17.70;80.00;;;;;;5021187;28;20478;-86
2022/04/18 07:21:55;;;;;;;12.30;9.68;;;17.60;83.40;;;;;;5020142;28;20058;-88
2022/04/18 07:24:22;;;;;;;11.95;9.60;;;18.60;81.00;;;;;;5018693;28;20061;-87
2022/04/18 07:26:48;;;;;;;10.52;9.43;;;18.50;80.60;;;;;;5017844;28;20042;-88
2022/04/18 07:29:14;;;;;;;11.88;9.70;;;18.80;79.80;;;;;;5011323;28;20049;-88
2022/04/18 07:31:39;;;;;;;10.75;9.43;;;19.30;78.20;;;;;;4994527;28;20062;-87
2022/04/18 07:34:05;;;;;;;11.80;8.65;;;19.20;79.90;;;;;;5011710;28;20474;-87
2022/04/18 07:36:31;;;;;;;10.15;8.38;;;19.40;75.80;;;;;;5012691;28;20066;-88
2022/04/18 07:38:56;;;;;;;11.18;8.60;;;19.30;75.60;;;;;;5021863;28;20054;-86
2022/04/18 07:41:26;;;;;;;11.85;8.85;;;18.80;78.60;;;;;;5016308;28;20057;-86
2022/04/18 07:43:52;;;;;;;9.55;8.48;;;18.80;80.20;;;;;;5010583;28;20475;-87
2022/04/18 07:46:18;;;;;;;9.35;8.35;;;18.90;80.30;;;;;;5001364;28;20042;-88
2022/04/18 07:48:45;;;;;;;11.38;9.00;;;19.50;78.00;;;;;;5019963;28;20064;-84
2022/04/18 07:53:55;;;;;;;11.02;8.50;;;19.80;76.20;;;;;;5017878;28;20049;-87
2022/04/18 07:56:21;;;;;;;15.73;9.73;;;19.40;77.30;;;;;;5017655;28;20554;-84
2022/04/18 07:58:47;;;;;;;13.35;9.15;;;19.10;76.00;;;;;;5016942;28;20046;-84
2022/04/18 08:01:13;;;;;;;10.32;8.88;;;19.30;77.60;;;;;;4998231;28;20053;-85
2022/04/18 08:03:38;;;;;;;10.95;8.75;;;20.00;76.50;;;;;;4996447;28;20049;-84
2022/04/18 08:06:04;;;;;;;10.20;9.15;;;20.10;76.20;;;;;;5014237;28;20034;-83
2022/04/18 08:08:31;;;;;;;11.13;9.40;;;20.60;76.00;;;;;;4996704;28;20119;-84
2022/04/18 08:10:58;;;;;;;10.63;9.00;;;20.10;76.20;;;;;;4997599;28;20124;-84
2022/04/18 08:13:24;;;;;;;10.23;8.35;;;21.00;73.10;;;;;;5012581;28;20049;-83
2022/04/18 08:15:49;;;;;;;9.82;8.82;;;20.60;74.80;;;;;;5012131;28;20034;-84
2022/04/18 08:18:15;;;;;;;10.57;8.93;;;20.80;72.40;;;;;;4981980;28;20044;-84
2022/04/18 08:20:41;;;;;;;14.18;9.70;;;20.20;73.90;;;;;;5012485;28;20042;-84
2022/04/18 08:23:06;;;;;;;12.75;9.05;;;20.40;73.90;;;;;;5014349;28;20069;-82
2022/04/18 08:25:33;;;;;;;9.52;8.52;;;20.20;73.90;;;;;;5021347;28;20078;-84
2022/04/18 08:27:59;;;;;;;12.32;9.15;;;20.80;74.00;;;;;;5012637;28;20065;-84
2022/04/18 08:30:25;;;;;;;9.93;8.20;;;21.30;70.60;;;;;;4999124;28;20049;-84
2022/04/18 08:32:50;;;;;;;9.20;8.30;;;21.50;70.70;;;;;;5004116;28;20056;-84
2022/04/18 08:35:16;;;;;;;10.35;8.88;;;21.60;70.40;;;;;;4996064;28;20065;-83
2022/04/18 08:37:41;;;;;;;9.63;8.70;;;21.20;71.90;;;;;;4979306;28;20049;-84
2022/04/18 08:40:09;;;;;;;11.43;8.55;;;21.60;70.00;;;;;;5011037;28;20042;-83
2022/04/18 08:42:38;;;;;;;10.65;7.97;;;21.70;68.60;;;;;;5010715;28;20065;-82
2022/04/18 08:45:06;;;;;;;8.88;7.57;;;21.50;69.80;;;;;;5011335;28;20089;-84
2022/04/18 08:53:02;;;;;;;9.10;6.97;;;21.80;68.00;;;;;;4996322;28;20046;-84
2022/04/18 08:55:29;;;;;;;7.55;6.85;;;21.80;65.30;;;;;;5011105;28;20050;-83
2022/04/18 08:57:55;;;;;;;8.40;6.25;;;22.20;67.20;;;;;;4982448;28;20049;-85
2022/04/18 09:00:21;;;;;;;9.13;6.40;;;22.50;65.10;;;;;;4998533;28;20547;-83
2022/04/18 09:02:46;;;;;;;7.50;6.18;;;22.80;65.20;;;;;;5032381;28;20045;-83
2022/04/18 09:05:12;;;;;;;8.30;6.18;;;23.20;62.80;;;;;;4997862;28;20045;-83
2022/04/18 09:07:44;;;;;;;8.65;5.95;;;22.30;60.70;;;;;;4982572;28;20037;-84
2022/04/18 09:10:11;;;;;;;9.15;6.10;;;22.70;60.80;;;;;;4996616;28;20148;-83
2022/04/18 09:12:40;;;;;;;8.18;5.75;;;23.10;63.50;;;;;;5014858;28;20053;-83
2022/04/18 09:15:07;;;;;;;6.15;5.55;;;22.80;61.40;;;;;;5031775;28;20072;-83
2022/04/18 09:17:33;;;;;;;8.10;6.07;;;23.20;61.00;;;;;;4998632;28;20060;-85
2022/04/18 09:20:17;;;;;;;8.40;5.80;;;23.40;60.70;;;;;;5014711;28;20075;-87
2022/04/18 09:22:43;;;;;;;;;;;22.90;62.80;;;;;;5033859;28;20045;-88
2022/04/18 09:25:16;;;;;;;6.40;5.72;;;23.50;62.00;;;;;;5033075;28;19928;-87
2022/04/18 09:28:02;;;;;;;7.63;5.63;;;23.20;61.00;;;;;;4999027;28;20517;-86
2022/04/18 09:30:31;;;;;;;5.82;4.97;;;23.60;60.70;;;;;;4985159;28;20137;-87
2022/04/18 09:33:00;;;;;;;8.05;5.90;;;24.00;58.60;;;;;;5016321;28;20073;-88
2022/04/18 09:35:26;;;;;;;6.95;5.47;;;23.70;58.50;;;;;;5015505;28;20380;-86
2022/04/18 09:37:53;;;;;;;6.82;5.40;;;24.10;57.70;;;;;;5014401;28;20042;-85
2022/04/18 09:40:22;;;;;;;6.97;5.30;;;23.60;59.60;;;;;;4983337;28;20057;-86
2022/04/18 09:42:52;;;;;;;7.00;5.80;;;23.30;58.60;;;;;;5006731;28;20136;-84
2022/04/18 09:45:18;;;;;;;6.32;5.72;;;23.70;59.00;;;;;;5027840;28;20041;-85
2022/04/18 09:47:43;;;;;;;5.82;4.80;;;23.70;59.40;;;;;;4982653;28;20056;-86
2022/04/18 09:50:59;;;;;;;5.50;5.00;;;23.70;58.60;;;;;;5014686;28;20132;-86
2022/04/18 09:53:05;;;;;;;7.50;5.80;;;23.90;56.60;;;;;;4986714;28;20514;-86
2022/04/18 09:55:31;;;;;;;7.72;5.63;;;23.70;58.60;;;;;;4998051;28;20498;-86
2022/04/18 09:58:03;;;;;;;7.80;5.85;;;23.30;58.90;;;;;;4999113;28;20106;-87
2022/04/18 10:00:29;;;;;;;6.43;5.10;;;23.30;59.60;;;;;;5026056;28;20029;-84
2022/04/18 10:02:55;;;;;;;7.20;5.18;;;23.80;56.90;;;;;;5002696;28;20026;-83
2022/04/18 10:05:21;;;;;;;5.53;4.72;;;23.80;57.90;;;;;;4991239;28;20041;-85
2022/04/18 10:07:47;;;;;;;6.28;5.70;;;24.00;58.20;;;;;;4999258;28;20052;-84
2022/04/18 10:10:13;;;;;;;7.00;5.72;;;24.30;59.20;;;;;;4982733;28;20490;-85
2022/04/18 10:12:39;;;;;;;6.22;5.63;;;24.20;59.30;;;;;;5015031;28;20112;-85
2022/04/18 10:15:05;;;;;;;5.88;5.03;;;24.40;56.80;;;;;;5014866;28;20041;-84
2022/04/18 10:17:31;;;;;;;6.45;5.75;;;24.60;57.90;;;;;;5013803;28;20422;-82
2022/04/18 10:20:46;;;;;;;7.70;5.05;;;24.60;55.90;;;;;;4996649;28;20100;-83
2022/04/18 10:23:30;;;;;;;8.18;5.38;;;24.80;55.30;;;;;;4984086;28;20092;-82
2022/04/18 10:26:14;;;;;;;5.70;5.13;;;23.90;57.40;;;;;;4997411;28;20064;-82
2022/04/18 10:28:40;;;;;;;;;;;23.90;57.30;;;;;;4978500;28;20132;-81
2022/04/18 10:31:17;;;;;;;5.95;5.10;;;24.00;57.60;;;;;;4996408;28;20004;-82
2022/04/18 10:33:43;;;;;;;5.85;5.25;;;24.40;55.60;;;;;;4998032;28;20099;-82
2022/04/18 10:36:09;;;;;;;6.60;5.20;;;23.20;53.80;;;;;;5012502;28;20159;-82
2022/04/18 10:38:36;;;;;;;8.60;5.68;;;23.10;57.20;;;;;;5013129;28;20136;-82
2022/04/18 10:41:15;;;;;;;7.57;5.35;;;23.10;55.80;;;;;;5012865;28;20374;-83
2022/04/18 10:43:53;;;;;;;6.47;5.57;;;23.30;56.10;;;;;;4981484;28;20084;-82
2022/04/18 10:46:19;;;;;;;6.63;5.93;;;23.70;58.00;;;;;;5029835;28;20052;-82
2022/04/18 10:48:57;;;;;;;8.90;5.95;;;23.40;57.00;;;;;;5031197;28;20041;-82
2022/04/18 10:51:36;;;;;;;5.38;4.88;;;23.10;60.00;;;;;;4990555;28;20072;-83
2022/04/18 10:54:08;;;;;;;6.82;5.70;;;23.60;55.80;;;;;;4957787;28;20045;-83
2022/04/18 10:57:01;;;;;;;6.88;5.75;;;23.00;57.60;;;;;;4971780;28;20060;-83
2022/04/18 10:59:30;;;;;;;7.72;5.57;;;23.30;56.50;;;;;;5010136;28;20056;-83
2022/04/18 11:02:01;;;;;;;6.25;5.40;;;23.00;57.10;;;;;;5007918;28;20514;-86
2022/04/18 11:04:30;;;;;;;6.07;5.47;;;23.00;57.70;;;;;;4995348;28;20057;-86
2022/04/18 11:07:04;;;;;;;7.72;5.72;;;22.60;57.20;;;;;;4994882;28;20050;-85
2022/04/18 11:09:32;;;;;;;5.88;5.05;;;22.40;57.90;;;;;;4994132;28;20568;-84
2022/04/18 11:12:05;;;;;;;7.03;5.50;;;21.70;59.30;;;;;;4994516;28;20050;-85
2022/04/18 11:14:53;;;;;;;6.00;5.25;;;21.40;59.30;;;;;;5010396;28;20131;-84
2022/04/18 11:17:32;;;;;;;6.80;5.47;;;21.30;57.90;;;;;;4977938;28;20050;-85
2022/04/18 11:20:16;;;;;;;6.78;5.20;;;21.00;57.80;;;;;;5015495;28;20057;-85
2022/04/18 11:22:42;;;;;;;6.63;5.40;;;20.70;58.40;;;;;;4997694;28;20070;-84
2022/04/18 11:25:10;;;;;;;7.00;5.78;;;20.60;60.30;;;;;;5018613;28;20081;-83
2022/04/18 11:27:37;;;;;;;6.93;6.10;;;20.80;64.10;;;;;;5009461;28;20509;-85
2022/04/18 11:30:07;;;;;;;6.57;5.10;;;20.70;60.20;;;;;;4985121;28;20072;-85
2022/04/18 11:32:34;;;;;;;5.43;4.93;;;21.00;60.20;;;;;;4989015;28;20042;-85
2022/04/18 11:35:00;;;;;;;6.65;5.00;;;20.80;59.60;;;;;;5008083;28;20120;-86
2022/04/18 11:37:39;;;;;;;5.13;4.57;;;20.90;60.00;;;;;;4998045;28;20217;-85
2022/04/18 11:40:15;;;;;;;7.68;5.72;;;21.00;58.60;;;;;;5014428;28;20060;-83
2022/04/18 11:42:41;;;;;;;7.43;5.57;;;20.60;58.10;;;;;;4982088;28;20053;-85
2022/04/18 11:45:09;;;;;;;6.53;5.40;;;20.60;59.80;;;;;;4997165;28;20177;-84
2022/04/18 11:48:03;;;;;;;6.78;4.80;;;20.50;58.80;;;;;;4981103;28;20286;-86
2022/04/18 11:50:29;;;;;;;4.53;3.90;;;20.70;59.50;;;;;;4994471;28;20055;-84
2022/04/18 11:53:05;;;;;;;4.35;3.90;;;20.50;56.30;;;;;;4998057;28;20443;-86
2022/04/18 11:55:31;;;;;;;4.88;4.00;;;20.80;56.00;;;;;;5014233;28;20065;-85
2022/04/18 11:57:58;;;;;;;5.40;4.20;;;20.90;55.80;;;;;;5001248;28;20069;-86
2022/04/18 12:08:47;;;;;;;5.13;4.63;;;20.90;54.90;;;;;;5016382;28;20037;-85
2022/04/18 12:11:13;;;;;;;6.28;5.53;;;20.90;55.60;;;;;;5008036;28;20474;-86
2022/04/18 12:13:43;;;;;;;7.40;5.07;;;20.80;57.60;;;;;;4984829;28;20136;-85
2022/04/18 12:16:09;;;;;;;6.05;5.40;;;20.80;60.00;;;;;;4984566;28;20057;-85
2022/04/18 12:18:35;;;;;;;6.00;5.32;;;20.70;58.30;;;;;;5000862;28;20053;-84
2022/04/18 12:21:00;;;;;;;6.57;5.30;;;20.90;57.40;;;;;;4986860;28;20050;-84
2022/04/18 12:23:26;;;;;;;6.15;5.22;;;20.70;57.60;;;;;;5000674;28;20052;-84
2022/04/18 12:25:53;;;;;;;6.00;4.93;;;20.70;58.50;;;;;;4996941;28;20061;-84
2022/04/18 12:28:26;;;;;;;5.07;3.88;;;20.70;60.30;;;;;;4968389;28;20057;-84
2022/04/18 12:30:52;;;;;;;5.30;4.10;;;20.80;58.20;;;;;;4982169;28;20092;-83
2022/04/18 12:33:22;;;;;;;5.40;4.60;;;20.90;54.40;;;;;;4981092;28;20081;-84
2022/04/18 12:35:51;;;;;;;5.10;4.20;;;20.50;54.60;;;;;;4981172;28;20053;-84
2022/04/18 12:38:17;;;;;;;4.60;4.20;;;20.90;55.90;;;;;;4996889;28;20115;-84
2022/04/18 12:40:44;;;;;;;5.72;4.68;;;20.90;54.90;;;;;;4997016;28;20080;-84
2022/04/18 12:43:16;;;;;;;5.15;4.65;;;21.00;57.50;;;;;;4997141;28;20092;-84
2022/04/18 12:45:50;;;;;;;6.28;4.40;;;20.90;57.80;;;;;;4980558;28;20078;-84
2022/04/18 12:48:21;;;;;;;5.18;4.68;;;20.90;58.40;;;;;;4980198;28;20405;-83
2022/04/18 12:50:47;;;;;;;5.97;4.03;;;20.90;57.70;;;;;;4980648;28;20099;-84
2022/04/18 12:53:12;;;;;;;5.47;4.38;;;21.10;58.30;;;;;;4980458;28;20049;-83
2022/04/18 12:55:38;;;;;;;6.32;4.70;;;21.10;59.30;;;;;;4964212;28;20057;-84
2022/04/18 12:58:18;;;;;;;6.38;4.80;;;20.90;57.60;;;;;;5015066;28;20179;-84
2022/04/18 13:00:48;;;;;;;6.72;5.68;;;20.70;57.30;;;;;;4997126;28;20145;-84
2022/04/18 13:03:15;;;;;;;6.03;5.15;;;20.60;56.90;;;;;;4996709;28;20060;-83
2022/04/18 13:05:48;;;;;;;4.95;4.45;;;20.40;57.90;;;;;;4965434;28;20050;-84
2022/04/18 13:08:16;;;;;;;5.53;4.82;;;20.30;57.90;;;;;;4964635;28;20054;-84